Aeroporto :
LOGIN :

Iscrizione | Disclaimer

   EN    FR    IT 

 










Sommario :    VFR   VFR Marginale   IFR   IFR Intensivo   IFR Molto Intensivo
Visibilità : 
Base nubi : 
>= 8 km
>= 3000ft
5 / 8 km
1000 / 3000 ft
1500m / 5 km
500 / 1000 ft
800 / 1500m
200 / 500 ft
< 800m
< 200 ft
Simboli :   Temporali  Nebbia  Neve Forte  Precipitazioni Forti  Vento > 20 kt
SIGMETs :   Varie  Temporali  Ghiacco  Turbolenza  Onda orograficha  Ceneri Vulcaniche






- Altitudine del aeroporto : 1202 ft
- Codice IATA : IGS


ETSI - Ingolstadt

ULTIMO METAR :
  • 090720Z 00000KT 1200 R25/2300N SN BR FEW001 BKN004 OVC008 M00/M01 Q1004 AMB YLO TEMPO AMB

METARs OBSOLETI :
  • 090710Z 00000KT 1400 R25/2300D SN BR FEW001 SCT003 OVC008 M00/M01 Q1004 AMB YLO TEMPO AMB
  • 090620Z 20001KT 2000 -SN BR FEW003 SCT005 BKN013 M00/M01 Q1004 YLO YLO TEMPO AMB
  • 090520Z AUTO 24002KT 1000 // ////// M00/M01 Q1003 ///

TAF TAF ETSI
Valido dal 09 a 06 ore il 09 a 15 ore UTC


090516Z 0906/0915 29005KT 3500 -SN SCT003 OVC008
TEMPO 0906/0909 26003KT 1000 -SN BKN002 OVC005
BECMG 0908/0910 30008KT 8000 NSW BKN007 BKN040
BECMG 0912/0914 28010KT 9999 NSW SCT010 BKN030



MetMap, La meteo Aeronautica in un colpo d'occhio ! - Copyright ORBIFLY Dicembre 2007 - Disclaimer

ORBIFLY MET'MAP TEAM :

Programmazione e sviluppo : Alexandra Zaïnal
Concezione : Baudouin d'Aumeries
Aiuto per la programmazione : Marc-Olivier Méhu
Supporto tecnico e logistico : Manuel Goepfert
Aiuto per la traduzione : Arnaldo La Scala

Contatto : metmap@orbifly.com




FONTI E CREDITI :

   NOAA